sensor_id;sensor_type;location;lat;lon;timestamp;P1;durP1;ratioP1;P2;durP2;ratioP2
10523;SDS011;5310;48.638;9.060;2022-09-21T00:02:23;0.60;;;0.60;;
10523;SDS011;5310;48.638;9.060;2022-09-21T00:04:49;0.50;;;0.50;;
10523;SDS011;5310;48.638;9.060;2022-09-21T00:07:15;0.68;;;0.68;;
10523;SDS011;5310;48.638;9.060;2022-09-21T00:09:41;0.75;;;0.75;;
10523;SDS011;5310;48.638;9.060;2022-09-21T00:12:07;0.60;;;0.60;;
10523;SDS011;5310;48.638;9.060;2022-09-21T00:14:33;0.50;;;0.50;;
10523;SDS011;5310;48.638;9.060;2022-09-21T00:16:59;0.80;;;0.80;;
10523;SDS011;5310;48.638;9.060;2022-09-21T00:19:25;0.60;;;0.60;;
10523;SDS011;5310;48.638;9.060;2022-09-21T00:21:54;0.60;;;0.60;;
10523;SDS011;5310;48.638;9.060;2022-09-21T00:24:21;0.65;;;0.65;;
10523;SDS011;5310;48.638;9.060;2022-09-21T00:26:47;0.80;;;0.80;;
10523;SDS011;5310;48.638;9.060;2022-09-21T00:29:13;0.60;;;0.60;;
10523;SDS011;5310;48.638;9.060;2022-09-21T00:31:39;0.60;;;0.60;;
10523;SDS011;5310;48.638;9.060;2022-09-21T00:34:05;0.70;;;0.70;;
10523;SDS011;5310;48.638;9.060;2022-09-21T00:36:32;0.80;;;0.80;;
10523;SDS011;5310;48.638;9.060;2022-09-21T00:38:58;0.70;;;0.70;;
10523;SDS011;5310;48.638;9.060;2022-09-21T00:41:25;0.60;;;0.60;;
10523;SDS011;5310;48.638;9.060;2022-09-21T03:19:06;0.90;;;0.90;;
10523;SDS011;5310;48.638;9.060;2022-09-21T03:21:32;0.80;;;0.80;;
10523;SDS011;5310;48.638;9.060;2022-09-21T03:24:02;0.70;;;0.70;;
10523;SDS011;5310;48.638;9.060;2022-09-21T03:26:27;0.67;;;0.67;;
10523;SDS011;5310;48.638;9.060;2022-09-21T03:28:53;0.70;;;0.70;;
10523;SDS011;5310;48.638;9.060;2022-09-21T03:31:19;0.60;;;0.60;;
10523;SDS011;5310;48.638;9.060;2022-09-21T03:33:46;0.70;;;0.70;;
10523;SDS011;5310;48.638;9.060;2022-09-21T03:36:12;0.70;;;0.70;;
10523;SDS011;5310;48.638;9.060;2022-09-21T03:38:38;0.60;;;0.60;;
10523;SDS011;5310;48.638;9.060;2022-09-21T03:41:04;0.80;;;0.80;;
10523;SDS011;5310;48.638;9.060;2022-09-21T03:43:31;1.00;;;1.00;;
10523;SDS011;5310;48.638;9.060;2022-09-21T03:45:57;0.90;;;0.90;;
10523;SDS011;5310;48.638;9.060;2022-09-21T03:48:23;0.90;;;0.90;;
10523;SDS011;5310;48.638;9.060;2022-09-21T03:50:49;0.80;;;0.80;;
10523;SDS011;5310;48.638;9.060;2022-09-21T03:53:15;0.63;;;0.63;;
10523;SDS011;5310;48.638;9.060;2022-09-21T03:55:42;0.70;;;0.70;;
10523;SDS011;5310;48.638;9.060;2022-09-21T03:58:08;0.60;;;0.60;;
10523;SDS011;5310;48.638;9.060;2022-09-21T04:00:35;0.60;;;0.60;;
10523;SDS011;5310;48.638;9.060;2022-09-21T04:03:03;0.70;;;0.70;;
10523;SDS011;5310;48.638;9.060;2022-09-21T04:05:29;0.83;;;0.83;;
10523;SDS011;5310;48.638;9.060;2022-09-21T04:07:55;1.00;;;1.00;;
10523;SDS011;5310;48.638;9.060;2022-09-21T04:10:22;0.90;;;0.90;;
10523;SDS011;5310;48.638;9.060;2022-09-21T04:12:51;0.80;;;0.80;;
10523;SDS011;5310;48.638;9.060;2022-09-21T04:17:43;1.00;;;1.00;;
10523;SDS011;5310;48.638;9.060;2022-09-21T04:20:09;1.00;;;1.00;;
10523;SDS011;5310;48.638;9.060;2022-09-21T04:22:36;0.90;;;0.90;;
10523;SDS011;5310;48.638;9.060;2022-09-21T04:25:05;0.80;;;0.80;;
10523;SDS011;5310;48.638;9.060;2022-09-21T04:27:32;0.63;;;0.63;;
10523;SDS011;5310;48.638;9.060;2022-09-21T04:29:59;0.65;;;0.65;;
10523;SDS011;5310;48.638;9.060;2022-09-21T04:32:26;0.60;;;0.60;;
10523;SDS011;5310;48.638;9.060;2022-09-21T04:34:52;0.60;;;0.60;;
10523;SDS011;5310;48.638;9.060;2022-09-21T04:37:18;0.73;;;0.73;;
10523;SDS011;5310;48.638;9.060;2022-09-21T04:39:44;0.98;;;0.98;;
10523;SDS011;5310;48.638;9.060;2022-09-21T04:42:10;1.00;;;1.00;;
10523;SDS011;5310;48.638;9.060;2022-09-21T04:44:37;1.00;;;1.00;;
10523;SDS011;5310;48.638;9.060;2022-09-21T04:47:03;0.90;;;0.90;;
10523;SDS011;5310;48.638;9.060;2022-09-21T04:49:29;0.73;;;0.73;;
10523;SDS011;5310;48.638;9.060;2022-09-21T04:51:55;0.70;;;0.70;;
10523;SDS011;5310;48.638;9.060;2022-09-21T04:54:21;0.70;;;0.70;;
10523;SDS011;5310;48.638;9.060;2022-09-21T04:56:47;0.70;;;0.70;;
10523;SDS011;5310;48.638;9.060;2022-09-21T04:59:13;0.60;;;0.60;;
10523;SDS011;5310;48.638;9.060;2022-09-21T05:01:39;0.60;;;0.60;;
10523;SDS011;5310;48.638;9.060;2022-09-21T05:04:05;0.60;;;0.60;;
10523;SDS011;5310;48.638;9.060;2022-09-21T05:06:31;0.60;;;0.60;;
10523;SDS011;5310;48.638;9.060;2022-09-21T05:08:58;0.77;;;0.77;;
10523;SDS011;5310;48.638;9.060;2022-09-21T05:11:42;1.00;;;1.00;;
10523;SDS011;5310;48.638;9.060;2022-09-21T05:14:09;1.00;;;1.00;;
10523;SDS011;5310;48.638;9.060;2022-09-21T05:16:35;0.90;;;0.90;;
10523;SDS011;5310;48.638;9.060;2022-09-21T05:19:02;0.80;;;0.80;;
10523;SDS011;5310;48.638;9.060;2022-09-21T05:21:28;0.80;;;0.80;;
10523;SDS011;5310;48.638;9.060;2022-09-21T05:23:55;0.70;;;0.70;;
10523;SDS011;5310;48.638;9.060;2022-09-21T05:26:21;0.70;;;0.70;;
10523;SDS011;5310;48.638;9.060;2022-09-21T05:28:47;0.60;;;0.60;;
10523;SDS011;5310;48.638;9.060;2022-09-21T05:33:39;0.70;;;0.70;;
10523;SDS011;5310;48.638;9.060;2022-09-21T05:38:42;1.00;;;1.00;;
10523;SDS011;5310;48.638;9.060;2022-09-21T05:41:08;0.82;;;0.82;;
10523;SDS011;5310;48.638;9.060;2022-09-21T05:43:34;0.80;;;0.80;;
10523;SDS011;5310;48.638;9.060;2022-09-21T05:46:34;0.80;;;0.80;;
10523;SDS011;5310;48.638;9.060;2022-09-21T05:48:54;0.70;;;0.70;;
10523;SDS011;5310;48.638;9.060;2022-09-21T05:54:05;0.80;;;0.80;;
10523;SDS011;5310;48.638;9.060;2022-09-21T06:04:14;0.70;;;0.70;;
10523;SDS011;5310;48.638;9.060;2022-09-21T06:06:41;0.63;;;0.63;;
10523;SDS011;5310;48.638;9.060;2022-09-21T06:09:07;0.70;;;0.70;;
10523;SDS011;5310;48.638;9.060;2022-09-21T06:11:32;0.52;;;0.52;;
10523;SDS011;5310;48.638;9.060;2022-09-21T06:14:02;0.77;;;0.77;;
10523;SDS011;5310;48.638;9.060;2022-09-21T06:16:37;0.80;;;0.80;;
10523;SDS011;5310;48.638;9.060;2022-09-21T06:19:03;0.70;;;0.70;;
10523;SDS011;5310;48.638;9.060;2022-09-21T06:21:29;0.60;;;0.60;;
10523;SDS011;5310;48.638;9.060;2022-09-21T06:23:55;0.60;;;0.60;;
10523;SDS011;5310;48.638;9.060;2022-09-21T06:26:22;0.90;;;0.90;;
10523;SDS011;5310;48.638;9.060;2022-09-21T06:28:48;0.90;;;0.90;;
10523;SDS011;5310;48.638;9.060;2022-09-21T06:31:14;0.70;;;0.70;;
10523;SDS011;5310;48.638;9.060;2022-09-21T06:33:40;0.70;;;0.70;;
10523;SDS011;5310;48.638;9.060;2022-09-21T06:36:06;0.60;;;0.60;;
10523;SDS011;5310;48.638;9.060;2022-09-21T06:38:32;0.75;;;0.75;;
10523;SDS011;5310;48.638;9.060;2022-09-21T06:41:02;0.80;;;0.80;;
10523;SDS011;5310;48.638;9.060;2022-09-21T06:43:29;0.65;;;0.65;;
10523;SDS011;5310;48.638;9.060;2022-09-21T06:45:56;0.60;;;0.60;;
10523;SDS011;5310;48.638;9.060;2022-09-21T06:48:22;0.60;;;0.60;;
10523;SDS011;5310;48.638;9.060;2022-09-21T06:50:49;0.75;;;0.75;;
10523;SDS011;5310;48.638;9.060;2022-09-21T06:53:15;0.60;;;0.60;;
10523;SDS011;5310;48.638;9.060;2022-09-21T06:55:42;0.53;;;0.53;;
10523;SDS011;5310;48.638;9.060;2022-09-21T06:58:08;0.70;;;0.70;;
10523;SDS011;5310;48.638;9.060;2022-09-21T07:00:34;0.88;;;0.88;;
10523;SDS011;5310;48.638;9.060;2022-09-21T07:03:00;0.60;;;0.60;;
10523;SDS011;5310;48.638;9.060;2022-09-21T07:05:26;0.50;;;0.50;;
10523;SDS011;5310;48.638;9.060;2022-09-21T07:07:55;0.80;;;0.80;;
10523;SDS011;5310;48.638;9.060;2022-09-21T07:10:22;0.60;;;0.60;;
10523;SDS011;5310;48.638;9.060;2022-09-21T07:12:48;0.50;;;0.50;;
10523;SDS011;5310;48.638;9.060;2022-09-21T07:15:15;0.63;;;0.63;;
10523;SDS011;5310;48.638;9.060;2022-09-21T07:17:43;0.70;;;0.70;;
10523;SDS011;5310;48.638;9.060;2022-09-21T07:20:09;0.60;;;0.60;;
10523;SDS011;5310;48.638;9.060;2022-09-21T07:22:36;0.50;;;0.50;;
10523;SDS011;5310;48.638;9.060;2022-09-21T07:25:02;0.80;;;0.80;;
10523;SDS011;5310;48.638;9.060;2022-09-21T07:27:29;0.60;;;0.60;;
10523;SDS011;5310;48.638;9.060;2022-09-21T07:29:56;0.50;;;0.50;;
10523;SDS011;5310;48.638;9.060;2022-09-21T07:32:22;0.60;;;0.60;;
10523;SDS011;5310;48.638;9.060;2022-09-21T07:34:48;0.60;;;0.60;;
10523;SDS011;5310;48.638;9.060;2022-09-21T07:37:15;0.40;;;0.40;;
10523;SDS011;5310;48.638;9.060;2022-09-21T07:39:41;0.65;;;0.65;;
10523;SDS011;5310;48.638;9.060;2022-09-21T07:42:07;0.40;;;0.40;;
10523;SDS011;5310;48.638;9.060;2022-09-21T07:44:33;0.60;;;0.60;;
10523;SDS011;5310;48.638;9.060;2022-09-21T07:46:59;0.50;;;0.50;;
10523;SDS011;5310;48.638;9.060;2022-09-21T07:49:27;0.60;;;0.60;;
10523;SDS011;5310;48.638;9.060;2022-09-21T07:51:53;0.50;;;0.50;;
10523;SDS011;5310;48.638;9.060;2022-09-21T07:54:19;0.50;;;0.50;;
10523;SDS011;5310;48.638;9.060;2022-09-21T07:56:45;0.43;;;0.43;;
10523;SDS011;5310;48.638;9.060;2022-09-21T07:59:31;0.45;;;0.45;;
10523;SDS011;5310;48.638;9.060;2022-09-21T08:01:57;0.60;;;0.60;;
10523;SDS011;5310;48.638;9.060;2022-09-21T08:04:24;0.40;;;0.40;;
10523;SDS011;5310;48.638;9.060;2022-09-21T08:06:49;0.60;;;0.60;;
10523;SDS011;5310;48.638;9.060;2022-09-21T08:09:15;0.40;;;0.40;;
10523;SDS011;5310;48.638;9.060;2022-09-21T08:11:41;0.60;;;0.60;;
10523;SDS011;5310;48.638;9.060;2022-09-21T08:14:09;0.50;;;0.50;;
10523;SDS011;5310;48.638;9.060;2022-09-21T08:16:36;0.50;;;0.50;;
10523;SDS011;5310;48.638;9.060;2022-09-21T08:19:05;0.65;;;0.65;;
10523;SDS011;5310;48.638;9.060;2022-09-21T08:21:31;0.40;;;0.40;;
10523;SDS011;5310;48.638;9.060;2022-09-21T08:23:58;0.50;;;0.50;;
10523;SDS011;5310;48.638;9.060;2022-09-21T08:26:24;0.50;;;0.50;;
10523;SDS011;5310;48.638;9.060;2022-09-21T08:28:52;0.40;;;0.40;;
10523;SDS011;5310;48.638;9.060;2022-09-21T08:31:20;0.50;;;0.50;;
10523;SDS011;5310;48.638;9.060;2022-09-21T08:33:48;0.50;;;0.50;;
10523;SDS011;5310;48.638;9.060;2022-09-21T08:36:14;0.40;;;0.40;;
10523;SDS011;5310;48.638;9.060;2022-09-21T08:38:40;0.40;;;0.40;;
10523;SDS011;5310;48.638;9.060;2022-09-21T08:44:02;0.60;;;0.60;;
10523;SDS011;5310;48.638;9.060;2022-09-21T08:46:30;0.40;;;0.40;;
10523;SDS011;5310;48.638;9.060;2022-09-21T08:48:58;0.40;;;0.40;;
10523;SDS011;5310;48.638;9.060;2022-09-21T08:51:29;0.60;;;0.60;;
10523;SDS011;5310;48.638;9.060;2022-09-21T08:53:58;0.43;;;0.43;;
10523;SDS011;5310;48.638;9.060;2022-09-21T08:56:26;0.30;;;0.30;;
10523;SDS011;5310;48.638;9.060;2022-09-21T08:58:52;0.40;;;0.40;;
10523;SDS011;5310;48.638;9.060;2022-09-21T09:12:11;0.32;;;0.32;;
10523;SDS011;5310;48.638;9.060;2022-09-21T09:14:44;0.38;;;0.38;;
10523;SDS011;5310;48.638;9.060;2022-09-21T09:20:22;0.50;;;0.50;;
10523;SDS011;5310;48.638;9.060;2022-09-21T09:22:42;0.50;;;0.50;;
10523;SDS011;5310;48.638;9.060;2022-09-21T09:25:14;0.50;;;0.50;;
10523;SDS011;5310;48.638;9.060;2022-09-21T09:27:41;0.50;;;0.50;;
10523;SDS011;5310;48.638;9.060;2022-09-21T09:30:22;0.40;;;0.40;;
10523;SDS011;5310;48.638;9.060;2022-09-21T09:35:26;0.40;;;0.40;;
10523;SDS011;5310;48.638;9.060;2022-09-21T09:37:54;0.35;;;0.35;;
10523;SDS011;5310;48.638;9.060;2022-09-21T09:40:55;0.40;;;0.40;;
10523;SDS011;5310;48.638;9.060;2022-09-21T09:43:42;0.40;;;0.40;;
10523;SDS011;5310;48.638;9.060;2022-09-21T09:49:10;0.40;;;0.40;;
10523;SDS011;5310;48.638;9.060;2022-09-21T09:51:58;0.30;;;0.30;;
10523;SDS011;5310;48.638;9.060;2022-09-21T09:54:25;0.40;;;0.40;;
10523;SDS011;5310;48.638;9.060;2022-09-21T09:56:52;0.40;;;0.40;;
10523;SDS011;5310;48.638;9.060;2022-09-21T09:59:27;0.40;;;0.40;;
10523;SDS011;5310;48.638;9.060;2022-09-21T10:04:29;0.40;;;0.40;;
10523;SDS011;5310;48.638;9.060;2022-09-21T10:06:58;0.40;;;0.40;;
10523;SDS011;5310;48.638;9.060;2022-09-21T10:09:30;0.30;;;0.30;;
10523;SDS011;5310;48.638;9.060;2022-09-21T10:12:00;0.32;;;0.32;;
10523;SDS011;5310;48.638;9.060;2022-09-21T10:14:38;0.30;;;0.30;;
10523;SDS011;5310;48.638;9.060;2022-09-21T10:17:11;0.30;;;0.30;;
10523;SDS011;5310;48.638;9.060;2022-09-21T10:19:41;0.30;;;0.30;;
10523;SDS011;5310;48.638;9.060;2022-09-21T10:22:13;0.40;;;0.40;;
10523;SDS011;5310;48.638;9.060;2022-09-21T10:24:44;0.40;;;0.40;;
10523;SDS011;5310;48.638;9.060;2022-09-21T10:27:14;0.40;;;0.40;;
10523;SDS011;5310;48.638;9.060;2022-09-21T10:29:43;0.30;;;0.30;;
10523;SDS011;5310;48.638;9.060;2022-09-21T10:37:32;0.30;;;0.30;;
10523;SDS011;5310;48.638;9.060;2022-09-21T10:39:59;0.30;;;0.30;;
10523;SDS011;5310;48.638;9.060;2022-09-21T10:42:26;0.30;;;0.30;;
10523;SDS011;5310;48.638;9.060;2022-09-21T10:50:04;0.40;;;0.40;;
10523;SDS011;5310;48.638;9.060;2022-09-21T10:55:36;0.30;;;0.30;;
10523;SDS011;5310;48.638;9.060;2022-09-21T10:58:10;0.30;;;0.30;;
10523;SDS011;5310;48.638;9.060;2022-09-21T11:00:45;0.32;;;0.32;;
10523;SDS011;5310;48.638;9.060;2022-09-21T11:06:18;0.40;;;0.40;;
10523;SDS011;5310;48.638;9.060;2022-09-21T11:08:59;0.40;;;0.40;;
10523;SDS011;5310;48.638;9.060;2022-09-21T11:17:08;0.30;;;0.30;;
10523;SDS011;5310;48.638;9.060;2022-09-21T11:19:41;0.30;;;0.30;;
10523;SDS011;5310;48.638;9.060;2022-09-21T11:24:59;0.20;;;0.20;;
10523;SDS011;5310;48.638;9.060;2022-09-21T11:27:29;0.40;;;0.40;;
10523;SDS011;5310;48.638;9.060;2022-09-21T11:30:02;0.30;;;0.30;;
10523;SDS011;5310;48.638;9.060;2022-09-21T11:35:31;0.30;;;0.30;;
10523;SDS011;5310;48.638;9.060;2022-09-21T11:38:04;0.30;;;0.30;;
10523;SDS011;5310;48.638;9.060;2022-09-21T11:54:27;0.30;;;0.30;;
10523;SDS011;5310;48.638;9.060;2022-09-21T11:56:57;0.40;;;0.40;;
10523;SDS011;5310;48.638;9.060;2022-09-21T11:59:33;0.40;;;0.40;;
10523;SDS011;5310;48.638;9.060;2022-09-21T12:08:05;0.40;;;0.40;;
10523;SDS011;5310;48.638;9.060;2022-09-21T12:15:44;0.30;;;0.30;;
10523;SDS011;5310;48.638;9.060;2022-09-21T12:18:12;0.30;;;0.30;;
10523;SDS011;5310;48.638;9.060;2022-09-21T12:20:42;0.30;;;0.30;;
10523;SDS011;5310;48.638;9.060;2022-09-21T12:23:11;0.30;;;0.30;;
10523;SDS011;5310;48.638;9.060;2022-09-21T12:26:13;0.32;;;0.32;;
10523;SDS011;5310;48.638;9.060;2022-09-21T12:28:51;0.30;;;0.30;;
10523;SDS011;5310;48.638;9.060;2022-09-21T12:31:42;0.40;;;0.40;;
10523;SDS011;5310;48.638;9.060;2022-09-21T12:34:21;0.30;;;0.30;;
10523;SDS011;5310;48.638;9.060;2022-09-21T12:39:54;0.30;;;0.30;;
10523;SDS011;5310;48.638;9.060;2022-09-21T12:42:28;0.40;;;0.40;;
10523;SDS011;5310;48.638;9.060;2022-09-21T12:45:02;0.40;;;0.40;;
10523;SDS011;5310;48.638;9.060;2022-09-21T12:47:38;0.30;;;0.30;;
10523;SDS011;5310;48.638;9.060;2022-09-21T12:50:18;0.30;;;0.30;;
10523;SDS011;5310;48.638;9.060;2022-09-21T12:52:45;0.38;;;0.38;;
10523;SDS011;5310;48.638;9.060;2022-09-21T12:55:31;0.30;;;0.30;;
10523;SDS011;5310;48.638;9.060;2022-09-21T12:58:03;0.40;;;0.40;;
10523;SDS011;5310;48.638;9.060;2022-09-21T13:00:34;0.40;;;0.40;;
10523;SDS011;5310;48.638;9.060;2022-09-21T13:06:01;0.30;;;0.30;;
10523;SDS011;5310;48.638;9.060;2022-09-21T13:08:51;0.40;;;0.40;;
10523;SDS011;5310;48.638;9.060;2022-09-21T13:11:17;0.30;;;0.30;;
10523;SDS011;5310;48.638;9.060;2022-09-21T13:13:49;0.30;;;0.30;;
10523;SDS011;5310;48.638;9.060;2022-09-21T13:16:22;0.30;;;0.30;;
10523;SDS011;5310;48.638;9.060;2022-09-21T13:18:53;0.30;;;0.30;;
10523;SDS011;5310;48.638;9.060;2022-09-21T13:21:20;0.40;;;0.40;;
10523;SDS011;5310;48.638;9.060;2022-09-21T13:23:51;0.30;;;0.30;;
10523;SDS011;5310;48.638;9.060;2022-09-21T13:26:27;0.30;;;0.30;;
10523;SDS011;5310;48.638;9.060;2022-09-21T13:37:19;0.30;;;0.30;;
10523;SDS011;5310;48.638;9.060;2022-09-21T13:44:54;0.30;;;0.30;;
10523;SDS011;5310;48.638;9.060;2022-09-21T13:47:27;0.30;;;0.30;;
10523;SDS011;5310;48.638;9.060;2022-09-21T13:49:54;0.30;;;0.30;;
10523;SDS011;5310;48.638;9.060;2022-09-21T13:54:50;0.30;;;0.30;;
10523;SDS011;5310;48.638;9.060;2022-09-21T13:57:18;0.30;;;0.30;;
10523;SDS011;5310;48.638;9.060;2022-09-21T14:00:02;0.30;;;0.30;;
10523;SDS011;5310;48.638;9.060;2022-09-21T14:02:41;0.40;;;0.40;;
10523;SDS011;5310;48.638;9.060;2022-09-21T14:08:01;0.40;;;0.40;;
10523;SDS011;5310;48.638;9.060;2022-09-21T14:10:27;0.40;;;0.40;;
10523;SDS011;5310;48.638;9.060;2022-09-21T14:12:56;0.40;;;0.40;;
10523;SDS011;5310;48.638;9.060;2022-09-21T14:18:07;0.40;;;0.40;;
10523;SDS011;5310;48.638;9.060;2022-09-21T14:20:40;0.30;;;0.30;;
10523;SDS011;5310;48.638;9.060;2022-09-21T14:23:41;0.40;;;0.40;;
10523;SDS011;5310;48.638;9.060;2022-09-21T14:39:03;0.30;;;0.30;;
10523;SDS011;5310;48.638;9.060;2022-09-21T14:41:36;0.30;;;0.30;;
10523;SDS011;5310;48.638;9.060;2022-09-21T14:44:04;0.40;;;0.40;;
10523;SDS011;5310;48.638;9.060;2022-09-21T14:46:34;0.40;;;0.40;;
10523;SDS011;5310;48.638;9.060;2022-09-21T15:00:36;0.30;;;0.30;;
10523;SDS011;5310;48.638;9.060;2022-09-21T15:05:54;0.30;;;0.30;;
10523;SDS011;5310;48.638;9.060;2022-09-21T15:08:55;0.40;;;0.40;;
10523;SDS011;5310;48.638;9.060;2022-09-21T15:11:46;0.30;;;0.30;;
10523;SDS011;5310;48.638;9.060;2022-09-21T15:14:33;0.40;;;0.40;;
10523;SDS011;5310;48.638;9.060;2022-09-21T15:17:16;0.30;;;0.30;;
10523;SDS011;5310;48.638;9.060;2022-09-21T15:19:43;0.30;;;0.30;;
10523;SDS011;5310;48.638;9.060;2022-09-21T15:22:14;0.30;;;0.30;;
10523;SDS011;5310;48.638;9.060;2022-09-21T15:24:55;0.38;;;0.38;;
10523;SDS011;5310;48.638;9.060;2022-09-21T15:27:30;0.30;;;0.30;;
10523;SDS011;5310;48.638;9.060;2022-09-21T15:29:59;0.43;;;0.43;;
10523;SDS011;5310;48.638;9.060;2022-09-21T15:35:25;0.30;;;0.30;;
10523;SDS011;5310;48.638;9.060;2022-09-21T15:37:55;0.30;;;0.30;;
10523;SDS011;5310;48.638;9.060;2022-09-21T15:40:31;0.20;;;0.20;;
10523;SDS011;5310;48.638;9.060;2022-09-21T15:48:15;0.30;;;0.30;;
10523;SDS011;5310;48.638;9.060;2022-09-21T15:50:41;0.30;;;0.30;;
10523;SDS011;5310;48.638;9.060;2022-09-21T15:53:14;0.40;;;0.40;;
10523;SDS011;5310;48.638;9.060;2022-09-21T15:55:45;0.40;;;0.40;;
10523;SDS011;5310;48.638;9.060;2022-09-21T16:00:53;0.30;;;0.30;;
10523;SDS011;5310;48.638;9.060;2022-09-21T16:03:20;0.40;;;0.40;;
10523;SDS011;5310;48.638;9.060;2022-09-21T16:05:48;0.40;;;0.40;;
10523;SDS011;5310;48.638;9.060;2022-09-21T16:08:25;0.35;;;0.35;;
10523;SDS011;5310;48.638;9.060;2022-09-21T16:10:51;0.30;;;0.30;;
10523;SDS011;5310;48.638;9.060;2022-09-21T16:13:19;0.30;;;0.30;;
10523;SDS011;5310;48.638;9.060;2022-09-21T16:16:08;0.40;;;0.40;;
10523;SDS011;5310;48.638;9.060;2022-09-21T16:18:45;0.30;;;0.30;;
10523;SDS011;5310;48.638;9.060;2022-09-21T16:23:50;0.30;;;0.30;;
10523;SDS011;5310;48.638;9.060;2022-09-21T16:26:37;0.40;;;0.40;;
10523;SDS011;5310;48.638;9.060;2022-09-21T16:31:33;0.30;;;0.30;;
10523;SDS011;5310;48.638;9.060;2022-09-21T16:36:43;0.40;;;0.40;;
10523;SDS011;5310;48.638;9.060;2022-09-21T16:39:10;0.40;;;0.40;;
10523;SDS011;5310;48.638;9.060;2022-09-21T16:41:38;0.40;;;0.40;;
10523;SDS011;5310;48.638;9.060;2022-09-21T16:44:09;0.40;;;0.40;;
10523;SDS011;5310;48.638;9.060;2022-09-21T16:46:44;0.30;;;0.30;;
10523;SDS011;5310;48.638;9.060;2022-09-21T16:49:14;0.30;;;0.30;;
10523;SDS011;5310;48.638;9.060;2022-09-21T16:51:42;0.30;;;0.30;;
10523;SDS011;5310;48.638;9.060;2022-09-21T16:54:09;0.30;;;0.30;;
10523;SDS011;5310;48.638;9.060;2022-09-21T16:56:35;0.30;;;0.30;;
10523;SDS011;5310;48.638;9.060;2022-09-21T16:59:00;0.38;;;0.38;;
10523;SDS011;5310;48.638;9.060;2022-09-21T17:01:30;0.40;;;0.40;;
10523;SDS011;5310;48.638;9.060;2022-09-21T17:03:55;0.40;;;0.40;;
10523;SDS011;5310;48.638;9.060;2022-09-21T17:06:22;0.40;;;0.40;;
10523;SDS011;5310;48.638;9.060;2022-09-21T17:08:47;0.40;;;0.40;;
10523;SDS011;5310;48.638;9.060;2022-09-21T17:11:17;0.30;;;0.30;;
10523;SDS011;5310;48.638;9.060;2022-09-21T17:13:47;0.40;;;0.40;;
10523;SDS011;5310;48.638;9.060;2022-09-21T17:16:13;0.30;;;0.30;;
10523;SDS011;5310;48.638;9.060;2022-09-21T17:18:41;0.40;;;0.40;;
10523;SDS011;5310;48.638;9.060;2022-09-21T17:21:08;0.32;;;0.32;;
10523;SDS011;5310;48.638;9.060;2022-09-21T17:23:34;0.30;;;0.30;;
10523;SDS011;5310;48.638;9.060;2022-09-21T17:26:00;0.30;;;0.30;;
10523;SDS011;5310;48.638;9.060;2022-09-21T17:28:26;0.30;;;0.30;;
10523;SDS011;5310;48.638;9.060;2022-09-21T17:30:52;0.30;;;0.30;;
10523;SDS011;5310;48.638;9.060;2022-09-21T17:33:18;0.30;;;0.30;;
10523;SDS011;5310;48.638;9.060;2022-09-21T17:35:45;0.30;;;0.30;;
10523;SDS011;5310;48.638;9.060;2022-09-21T17:38:11;0.40;;;0.40;;
10523;SDS011;5310;48.638;9.060;2022-09-21T17:40:38;0.30;;;0.30;;
10523;SDS011;5310;48.638;9.060;2022-09-21T17:45:51;0.35;;;0.35;;
10523;SDS011;5310;48.638;9.060;2022-09-21T17:48:19;0.40;;;0.40;;
10523;SDS011;5310;48.638;9.060;2022-09-21T17:50:45;0.40;;;0.40;;
10523;SDS011;5310;48.638;9.060;2022-09-21T17:53:12;0.40;;;0.40;;
10523;SDS011;5310;48.638;9.060;2022-09-21T17:55:57;0.40;;;0.40;;
10523;SDS011;5310;48.638;9.060;2022-09-21T18:03:29;0.40;;;0.40;;
10523;SDS011;5310;48.638;9.060;2022-09-21T18:05:56;0.40;;;0.40;;
10523;SDS011;5310;48.638;9.060;2022-09-21T18:08:28;0.30;;;0.30;;
10523;SDS011;5310;48.638;9.060;2022-09-21T18:11:43;0.40;;;0.40;;
10523;SDS011;5310;48.638;9.060;2022-09-21T18:14:08;0.30;;;0.30;;
10523;SDS011;5310;48.638;9.060;2022-09-21T18:16:38;0.40;;;0.40;;
10523;SDS011;5310;48.638;9.060;2022-09-21T18:24:45;0.43;;;0.43;;
10523;SDS011;5310;48.638;9.060;2022-09-21T18:27:12;0.50;;;0.50;;
10523;SDS011;5310;48.638;9.060;2022-09-21T18:29:39;0.50;;;0.50;;
10523;SDS011;5310;48.638;9.060;2022-09-21T18:34:48;0.50;;;0.50;;
10523;SDS011;5310;48.638;9.060;2022-09-21T18:40:14;0.50;;;0.50;;
10523;SDS011;5310;48.638;9.060;2022-09-21T18:53:19;0.60;;;0.60;;
10523;SDS011;5310;48.638;9.060;2022-09-21T18:55:45;0.40;;;0.40;;
10523;SDS011;5310;48.638;9.060;2022-09-21T18:58:12;0.60;;;0.60;;
10523;SDS011;5310;48.638;9.060;2022-09-21T19:00:40;0.40;;;0.40;;
10523;SDS011;5310;48.638;9.060;2022-09-21T19:03:06;0.50;;;0.50;;
10523;SDS011;5310;48.638;9.060;2022-09-21T19:05:36;0.52;;;0.52;;
10523;SDS011;5310;48.638;9.060;2022-09-21T19:08:06;0.40;;;0.40;;
10523;SDS011;5310;48.638;9.060;2022-09-21T19:10:35;0.40;;;0.40;;
10523;SDS011;5310;48.638;9.060;2022-09-21T19:13:28;0.50;;;0.50;;
10523;SDS011;5310;48.638;9.060;2022-09-21T19:21:33;0.60;;;0.60;;
10523;SDS011;5310;48.638;9.060;2022-09-21T19:29:33;0.60;;;0.60;;
10523;SDS011;5310;48.638;9.060;2022-09-21T19:32:10;0.50;;;0.50;;
10523;SDS011;5310;48.638;9.060;2022-09-21T19:34:40;0.45;;;0.45;;
10523;SDS011;5310;48.638;9.060;2022-09-21T19:37:06;0.57;;;0.57;;
10523;SDS011;5310;48.638;9.060;2022-09-21T19:39:33;0.40;;;0.40;;
10523;SDS011;5310;48.638;9.060;2022-09-21T19:44:42;0.45;;;0.45;;
10523;SDS011;5310;48.638;9.060;2022-09-21T19:47:18;0.50;;;0.50;;
10523;SDS011;5310;48.638;9.060;2022-09-21T19:50:19;0.60;;;0.60;;
10523;SDS011;5310;48.638;9.060;2022-09-21T19:52:46;0.40;;;0.40;;
10523;SDS011;5310;48.638;9.060;2022-09-21T19:55:13;0.60;;;0.60;;
10523;SDS011;5310;48.638;9.060;2022-09-21T19:57:58;0.50;;;0.50;;
10523;SDS011;5310;48.638;9.060;2022-09-21T20:00:43;0.50;;;0.50;;
10523;SDS011;5310;48.638;9.060;2022-09-21T20:13:21;0.60;;;0.60;;
10523;SDS011;5310;48.638;9.060;2022-09-21T20:15:49;0.47;;;0.47;;
10523;SDS011;5310;48.638;9.060;2022-09-21T20:20:41;0.50;;;0.50;;
10523;SDS011;5310;48.638;9.060;2022-09-21T20:23:08;0.70;;;0.70;;
10523;SDS011;5310;48.638;9.060;2022-09-21T20:25:37;0.50;;;0.50;;
10523;SDS011;5310;48.638;9.060;2022-09-21T20:28:05;0.45;;;0.45;;
10523;SDS011;5310;48.638;9.060;2022-09-21T20:30:33;0.60;;;0.60;;
10523;SDS011;5310;48.638;9.060;2022-09-21T20:33:01;0.50;;;0.50;;
10523;SDS011;5310;48.638;9.060;2022-09-21T20:35:32;0.77;;;0.77;;
10523;SDS011;5310;48.638;9.060;2022-09-21T20:37:58;0.60;;;0.60;;
10523;SDS011;5310;48.638;9.060;2022-09-21T20:40:24;0.50;;;0.50;;
10523;SDS011;5310;48.638;9.060;2022-09-21T20:42:52;0.68;;;0.68;;
10523;SDS011;5310;48.638;9.060;2022-09-21T20:45:20;0.50;;;0.50;;
10523;SDS011;5310;48.638;9.060;2022-09-21T20:47:50;0.60;;;0.60;;
10523;SDS011;5310;48.638;9.060;2022-09-21T20:50:16;0.60;;;0.60;;
10523;SDS011;5310;48.638;9.060;2022-09-21T20:52:43;0.50;;;0.50;;
10523;SDS011;5310;48.638;9.060;2022-09-21T20:55:14;0.70;;;0.70;;
10523;SDS011;5310;48.638;9.060;2022-09-21T20:57:44;0.57;;;0.57;;
10523;SDS011;5310;48.638;9.060;2022-09-21T21:00:13;0.40;;;0.40;;
10523;SDS011;5310;48.638;9.060;2022-09-21T21:02:39;0.55;;;0.55;;
10523;SDS011;5310;48.638;9.060;2022-09-21T21:05:06;0.60;;;0.60;;
10523;SDS011;5310;48.638;9.060;2022-09-21T21:07:32;0.52;;;0.52;;
10523;SDS011;5310;48.638;9.060;2022-09-21T21:09:59;0.68;;;0.68;;
10523;SDS011;5310;48.638;9.060;2022-09-21T21:12:26;0.70;;;0.70;;
10523;SDS011;5310;48.638;9.060;2022-09-21T21:24:34;0.60;;;0.60;;
10523;SDS011;5310;48.638;9.060;2022-09-21T21:44:07;0.60;;;0.60;;
10523;SDS011;5310;48.638;9.060;2022-09-21T21:46:35;0.80;;;0.80;;
10523;SDS011;5310;48.638;9.060;2022-09-21T21:49:01;0.70;;;0.70;;
10523;SDS011;5310;48.638;9.060;2022-09-21T21:51:27;0.60;;;0.60;;
10523;SDS011;5310;48.638;9.060;2022-09-21T21:53:52;0.50;;;0.50;;
10523;SDS011;5310;48.638;9.060;2022-09-21T21:56:18;0.73;;;0.73;;
10523;SDS011;5310;48.638;9.060;2022-09-21T21:58:49;0.70;;;0.70;;
10523;SDS011;5310;48.638;9.060;2022-09-21T22:01:16;0.60;;;0.60;;
10523;SDS011;5310;48.638;9.060;2022-09-21T22:03:53;0.50;;;0.50;;